createdAt,value
2022-10-13T00:01:55.563Z,98213.91
2022-10-13T00:06:59.180Z,98177.63
2022-10-13T00:12:02.942Z,98210.47
2022-10-13T00:17:06.681Z,98178.69
2022-10-13T00:22:10.339Z,98179.13
2022-10-13T00:27:13.951Z,98060.91
2022-10-13T00:32:17.788Z,97965.59
2022-10-13T00:37:23.405Z,98113.84
2022-10-13T00:42:28.070Z,98116.19
2022-10-13T00:47:56.745Z,98030.09
2022-10-13T00:53:03.259Z,97979.72
2022-10-13T00:58:11.393Z,98194.94
2022-10-13T01:03:15.269Z,97944.13
2022-10-13T01:08:20.736Z,98075.53
2022-10-13T01:13:41.982Z,98189.59
2022-10-13T01:19:00.669Z,98178.03
2022-10-13T01:24:44.382Z,98154.41
2022-10-13T01:30:07.521Z,98170.81
2022-10-13T01:35:23.192Z,98011.06
2022-10-13T01:40:33.159Z,98159.13
2022-10-13T01:45:41.417Z,98158.22
2022-10-13T01:50:47.749Z,98067.09
2022-10-13T01:55:57.979Z,98068.56
2022-10-13T02:01:18.781Z,98099.72
2022-10-13T02:06:28.900Z,97981.66
2022-10-13T02:11:34.443Z,98069.25
2022-10-13T02:16:44.596Z,98027.88
2022-10-13T02:21:52.804Z,97870.00
2022-10-13T02:26:57.617Z,98047.56
2022-10-13T02:32:01.944Z,98004.38
2022-10-13T02:37:05.594Z,98105.91
2022-10-13T02:42:09.410Z,98117.28
2022-10-13T02:47:12.972Z,98070.72
2022-10-13T02:52:16.589Z,97931.88
2022-10-13T02:57:20.456Z,98081.66
2022-10-13T03:02:24.404Z,97893.66
2022-10-13T03:07:28.203Z,97981.75
2022-10-13T03:12:32.379Z,98094.38
2022-10-13T03:17:36.901Z,97883.38
2022-10-13T03:22:43.947Z,97885.06
2022-10-13T03:27:51.078Z,98053.50
2022-10-13T03:32:54.997Z,98037.22
2022-10-13T03:37:58.721Z,97867.34
2022-10-13T03:43:02.352Z,98073.50
2022-10-13T03:48:07.731Z,98090.19
2022-10-13T03:53:14.309Z,97897.66
2022-10-13T03:58:18.453Z,97886.03
2022-10-13T04:03:34.456Z,98078.66
2022-10-13T04:08:40.570Z,97922.34
2022-10-13T04:13:45.256Z,98065.63
2022-10-13T04:19:02.088Z,98111.06
2022-10-13T04:24:06.805Z,97973.91
2022-10-13T04:29:12.020Z,98056.34
2022-10-13T04:34:16.125Z,97836.78
2022-10-13T04:39:22.063Z,97860.09
2022-10-13T04:44:25.895Z,98023.13
2022-10-13T04:49:29.456Z,98100.59
2022-10-13T04:54:32.918Z,97946.94
2022-10-13T04:59:36.410Z,98043.06
2022-10-13T05:04:40.133Z,97823.53
2022-10-13T05:09:43.899Z,98111.72
2022-10-13T05:14:47.299Z,98083.81
2022-10-13T05:19:51.244Z,97952.03
2022-10-13T05:24:54.924Z,98039.31
2022-10-13T05:29:58.566Z,98054.84
2022-10-13T05:35:02.045Z,98011.53
2022-10-13T05:40:06.485Z,98111.09
2022-10-13T05:45:11.923Z,97999.94
2022-10-13T05:50:16.029Z,97944.69
2022-10-13T05:55:20.886Z,97839.03
2022-10-13T06:00:24.770Z,97956.91
2022-10-13T06:05:28.913Z,98037.75
2022-10-13T06:10:32.876Z,98078.31
2022-10-13T06:15:36.561Z,98071.81
2022-10-13T06:20:40.011Z,97904.03
2022-10-13T06:25:50.825Z,98116.00
2022-10-13T06:30:55.502Z,98083.34
2022-10-13T06:36:01.912Z,98121.72
2022-10-13T06:41:06.588Z,98100.47
2022-10-13T06:46:11.636Z,98101.34
2022-10-13T06:51:15.649Z,98054.13
2022-10-13T06:56:20.118Z,97925.63
2022-10-13T07:01:24.141Z,98110.25
2022-10-13T07:06:27.991Z,98082.59
2022-10-13T07:11:32.499Z,98025.75
2022-10-13T07:16:36.184Z,98061.91
2022-10-13T07:21:39.900Z,98057.97
2022-10-13T07:26:43.275Z,98044.91
2022-10-13T07:31:47.612Z,97994.66
2022-10-13T07:36:51.143Z,97956.66
2022-10-13T07:41:54.838Z,97884.91
2022-10-13T07:46:58.445Z,98093.25
2022-10-13T07:52:02.608Z,98001.31
2022-10-13T07:57:06.042Z,98088.75
2022-10-13T08:02:10.927Z,97824.19
2022-10-13T08:07:14.725Z,98063.22
2022-10-13T08:12:18.662Z,98017.63
2022-10-13T08:17:22.742Z,97831.84
2022-10-13T08:22:28.634Z,98082.63
2022-10-13T08:27:49.621Z,97848.06
2022-10-13T08:32:54.435Z,97907.81
2022-10-13T08:37:57.959Z,97929.59
2022-10-13T08:43:01.687Z,98030.81
2022-10-13T08:48:18.654Z,98053.16
2022-10-13T08:53:32.181Z,98092.31
2022-10-13T08:58:37.870Z,97912.88
2022-10-13T09:04:09.175Z,98082.00
2022-10-13T09:09:15.263Z,97862.69
2022-10-13T09:14:23.057Z,98078.31
2022-10-13T09:19:34.766Z,98081.72
2022-10-13T09:24:38.227Z,97945.88
2022-10-13T09:29:42.515Z,98054.19
2022-10-13T09:34:46.802Z,98076.44
2022-10-13T09:40:12.262Z,98073.47
2022-10-13T09:45:20.171Z,97886.28
2022-10-13T09:50:28.988Z,97971.88
2022-10-13T09:55:35.673Z,98068.28
2022-10-13T10:00:40.607Z,98073.13
2022-10-13T10:05:56.698Z,98067.69
2022-10-13T10:11:10.578Z,98023.22
2022-10-13T10:16:32.281Z,98049.81
2022-10-13T10:21:52.028Z,97967.09
2022-10-13T10:27:02.629Z,98042.22
2022-10-13T10:32:06.532Z,98045.47
2022-10-13T10:37:38.177Z,98036.53
2022-10-13T10:43:03.329Z,98026.00
2022-10-13T10:48:22.281Z,97968.06
2022-10-13T10:53:33.937Z,97882.97
2022-10-13T10:59:01.712Z,98006.53
2022-10-13T11:04:36.960Z,98006.16
2022-10-13T11:09:43.815Z,98001.22
2022-10-13T11:14:48.395Z,98005.50
2022-10-13T11:19:52.319Z,97940.47
2022-10-13T11:25:01.937Z,97991.38
2022-10-13T11:30:26.812Z,97955.47
2022-10-13T11:35:32.056Z,97891.75
2022-10-13T11:40:38.589Z,97963.75
2022-10-13T11:45:50.927Z,97877.06
2022-10-13T11:51:33.620Z,97952.91
2022-10-13T11:56:49.191Z,97933.78
2022-10-13T12:02:12.218Z,97951.25
2022-10-13T12:07:18.012Z,97929.75
2022-10-13T12:12:23.516Z,97799.81
2022-10-13T12:17:27.640Z,97912.00
2022-10-13T12:22:31.599Z,97871.78
2022-10-13T12:27:48.028Z,97770.38
2022-10-13T12:32:57.796Z,97806.41
2022-10-13T12:38:04.410Z,97903.34
2022-10-13T12:43:08.418Z,97722.00
2022-10-13T12:48:32.960Z,97901.81
2022-10-13T12:53:40.087Z,97873.66
2022-10-13T12:58:44.521Z,97727.94
2022-10-13T13:03:55.926Z,97891.47
2022-10-13T13:09:23.069Z,97878.16
2022-10-13T13:14:51.854Z,97891.69
2022-10-13T13:19:56.564Z,97886.31
2022-10-13T13:25:01.118Z,97624.50
2022-10-13T13:30:05.262Z,97689.94
2022-10-13T13:35:09.046Z,97876.69
2022-10-13T13:40:18.297Z,97885.03
2022-10-13T13:45:23.872Z,97873.94
2022-10-13T13:50:33.037Z,97611.38
2022-10-13T13:55:36.669Z,97679.75
2022-10-13T14:00:40.107Z,97771.41
2022-10-13T14:05:43.535Z,97667.53
2022-10-13T14:10:47.066Z,97853.00
2022-10-13T14:16:02.185Z,97861.72
2022-10-13T14:21:08.022Z,97835.91
2022-10-13T14:26:11.539Z,97755.78
2022-10-13T14:31:15.050Z,97868.22
2022-10-13T14:36:18.461Z,97675.09
2022-10-13T14:41:22.697Z,97854.44
2022-10-13T14:46:26.266Z,97831.53
2022-10-13T14:51:29.742Z,97834.00
2022-10-13T14:56:34.104Z,97853.91
2022-10-13T15:01:48.959Z,97855.75
2022-10-13T15:06:55.594Z,97837.88
2022-10-13T15:11:59.209Z,97821.69
2022-10-13T15:17:04.123Z,97725.19
2022-10-13T15:22:07.570Z,97606.56
2022-10-13T15:27:11.002Z,97728.53
2022-10-13T15:32:19.104Z,97714.94
2022-10-13T15:37:22.770Z,97782.47
2022-10-13T15:42:26.308Z,97815.34
2022-10-13T15:47:29.812Z,97802.31
2022-10-13T15:52:35.189Z,97769.31
2022-10-13T15:57:39.889Z,97853.31
2022-10-13T16:02:45.497Z,97790.72
2022-10-13T16:07:49.120Z,97775.78
2022-10-13T16:12:52.781Z,97766.19
2022-10-13T16:17:56.182Z,97840.75
2022-10-13T16:22:59.674Z,97807.78
2022-10-13T16:28:03.440Z,97655.66
2022-10-13T16:33:07.093Z,97809.09
2022-10-13T16:38:12.173Z,97561.69
2022-10-13T16:43:17.370Z,97801.19
2022-10-13T16:48:21.039Z,97771.56
2022-10-13T16:53:24.734Z,97678.91
2022-10-13T16:58:28.351Z,97727.16
2022-10-13T17:03:31.762Z,97797.34
2022-10-13T17:08:35.907Z,97802.28
2022-10-13T17:13:39.937Z,97781.50
2022-10-13T17:18:43.606Z,97817.38
2022-10-13T17:23:48.873Z,97861.06
2022-10-13T17:28:52.857Z,97848.22
2022-10-13T17:33:56.504Z,97827.34
2022-10-13T17:39:06.337Z,97758.38
2022-10-13T17:44:11.527Z,97691.41
2022-10-13T17:49:18.107Z,97610.16
2022-10-13T17:54:22.268Z,97861.50
2022-10-13T17:59:26.061Z,97775.66
2022-10-13T18:04:31.224Z,97871.16
2022-10-13T18:09:34.689Z,97578.28
2022-10-13T18:14:38.424Z,97744.63
2022-10-13T18:19:42.305Z,97649.75
2022-10-13T18:24:47.560Z,97837.66
2022-10-13T18:29:51.541Z,97805.56
2022-10-13T18:34:57.222Z,97779.16
2022-10-13T18:40:01.013Z,97890.84
2022-10-13T18:45:04.956Z,97873.16
2022-10-13T18:50:08.875Z,97827.88
2022-10-13T18:55:12.393Z,97722.47
2022-10-13T19:00:16.661Z,97844.13
2022-10-13T19:05:20.891Z,97789.56
2022-10-13T19:10:24.345Z,97897.59
2022-10-13T19:15:27.902Z,97812.75
2022-10-13T19:20:31.354Z,97784.22
2022-10-13T19:25:34.901Z,97774.09
2022-10-13T19:30:39.939Z,97838.16
2022-10-13T19:35:46.599Z,97884.72
2022-10-13T19:40:50.588Z,97873.44
2022-10-13T19:45:58.875Z,97811.50
2022-10-13T19:51:07.502Z,97823.44
2022-10-13T19:56:24.219Z,97736.81
2022-10-13T20:01:28.800Z,97853.53
2022-10-13T20:06:32.285Z,97640.97
2022-10-13T20:11:36.657Z,97699.88
2022-10-13T20:16:40.506Z,97795.59
2022-10-13T20:21:44.274Z,97789.25
2022-10-13T20:26:48.880Z,97827.53
2022-10-13T20:31:56.087Z,97646.91
2022-10-13T20:36:59.741Z,97692.16
2022-10-13T20:42:04.194Z,97683.28
2022-10-13T20:47:07.939Z,97824.75
2022-10-13T20:52:11.439Z,97824.19
2022-10-13T20:57:14.981Z,97816.19
2022-10-13T21:02:18.503Z,97827.06
2022-10-13T21:07:22.425Z,97667.94
2022-10-13T21:12:26.983Z,97588.47
2022-10-13T21:17:32.798Z,97685.88
2022-10-13T21:22:44.085Z,97789.00
2022-10-13T21:27:48.075Z,97834.25
2022-10-13T21:32:52.438Z,97837.41
2022-10-13T21:38:16.172Z,97832.41
2022-10-13T21:43:23.358Z,97705.03
2022-10-13T21:48:33.881Z,97664.75
2022-10-13T21:53:43.268Z,97784.47
2022-10-13T21:58:57.501Z,97826.53
2022-10-13T22:04:03.322Z,97799.03
2022-10-13T22:09:07.561Z,97784.47
2022-10-13T22:14:11.289Z,97770.91
2022-10-13T22:19:16.168Z,97824.53
2022-10-13T22:24:21.688Z,97792.31
2022-10-13T22:29:26.114Z,97795.34
2022-10-13T22:34:29.878Z,97746.00
2022-10-13T22:39:33.346Z,97803.69
2022-10-13T22:44:36.782Z,97732.28
2022-10-13T22:49:40.268Z,97743.34
2022-10-13T22:54:43.726Z,97669.94
2022-10-13T22:59:47.407Z,97867.25
2022-10-13T23:04:51.113Z,97589.00
2022-10-13T23:09:54.564Z,97589.41
2022-10-13T23:14:58.121Z,97799.53
2022-10-13T23:20:11.603Z,97735.41
2022-10-13T23:25:15.287Z,97659.84
2022-10-13T23:30:20.175Z,97844.00
2022-10-13T23:35:23.679Z,97824.94
2022-10-13T23:40:27.494Z,97754.44
2022-10-13T23:45:33.651Z,97780.47
2022-10-13T23:50:37.554Z,97607.53
2022-10-13T23:55:42.679Z,97731.41
